createdAt,value
2022-09-06T00:01:33.279Z,23.95
2022-09-06T00:03:58.926Z,23.94
2022-09-06T00:06:24.503Z,23.94
2022-09-06T00:08:50.065Z,23.94
2022-09-06T00:11:16.265Z,23.94
2022-09-06T00:13:41.979Z,23.95
2022-09-06T00:16:08.279Z,23.93
2022-09-06T00:18:33.848Z,23.95
2022-09-06T00:20:59.385Z,23.93
2022-09-06T00:23:24.934Z,23.93
2022-09-06T00:25:50.478Z,23.93
2022-09-06T00:28:16.026Z,23.94
2022-09-06T00:30:41.589Z,23.93
2022-09-06T00:33:07.185Z,23.94
2022-09-06T00:35:32.805Z,23.94
2022-09-06T00:37:58.861Z,23.93
2022-09-06T00:40:24.498Z,23.93
2022-09-06T00:42:50.861Z,23.93
2022-09-06T00:45:16.397Z,23.93
2022-09-06T00:47:41.936Z,23.93
2022-09-06T00:50:07.805Z,23.93
2022-09-06T00:52:33.344Z,23.93
2022-09-06T00:54:58.893Z,23.93
2022-09-06T00:57:26.312Z,23.93
2022-09-06T00:59:52.156Z,23.94
2022-09-06T01:02:18.665Z,23.93
2022-09-06T01:04:44.332Z,23.92
2022-09-06T01:07:27.109Z,23.92
2022-09-06T01:09:59.635Z,23.93
2022-09-06T01:12:36.245Z,23.92
2022-09-06T01:15:05.230Z,23.92
2022-09-06T01:17:50.686Z,23.93
2022-09-06T01:20:28.215Z,23.92
2022-09-06T01:23:13.656Z,23.91
2022-09-06T01:28:45.468Z,23.92
2022-09-06T01:31:30.956Z,23.91
2022-09-06T01:34:16.417Z,23.92
2022-09-06T01:37:06.196Z,23.92
2022-09-06T01:39:29.625Z,23.91
2022-09-06T01:41:55.501Z,23.91
2022-09-06T01:44:21.037Z,23.91
2022-09-06T01:46:55.830Z,23.91
2022-09-06T01:49:33.319Z,23.91
2022-09-06T01:52:16.975Z,23.91
2022-09-06T01:55:02.447Z,23.92
2022-09-06T01:57:31.995Z,23.91
2022-09-06T02:00:02.663Z,23.90
2022-09-06T02:02:39.572Z,23.92
2022-09-06T02:05:06.097Z,23.90
2022-09-06T02:07:31.943Z,23.91
2022-09-06T02:09:59.063Z,23.90
2022-09-06T02:12:24.728Z,23.91
2022-09-06T02:14:52.233Z,23.90
2022-09-06T02:17:19.716Z,23.91
2022-09-06T02:19:46.841Z,23.91
2022-09-06T02:22:13.636Z,23.90
2022-09-06T02:24:39.896Z,23.90
2022-09-06T02:27:05.913Z,23.91
2022-09-06T02:29:31.644Z,23.90
2022-09-06T02:31:59.472Z,23.90
2022-09-06T02:34:25.016Z,23.90
2022-09-06T02:36:50.572Z,23.90
2022-09-06T02:39:16.107Z,23.90
2022-09-06T02:41:41.664Z,23.91
2022-09-06T02:44:07.548Z,23.91
2022-09-06T02:46:33.174Z,23.90
2022-09-06T02:48:58.779Z,23.91
2022-09-06T02:51:24.312Z,23.89
2022-09-06T02:53:49.863Z,23.90
2022-09-06T02:56:15.400Z,23.90
2022-09-06T02:58:40.964Z,23.90
2022-09-06T03:01:06.541Z,23.90
2022-09-06T03:03:32.116Z,23.89
2022-09-06T03:05:57.654Z,23.91
2022-09-06T03:08:25.601Z,23.89
2022-09-06T03:10:53.159Z,23.90
2022-09-06T03:13:21.524Z,23.89
2022-09-06T03:15:55.479Z,23.90
2022-09-06T03:18:21.339Z,23.89
2022-09-06T03:20:48.758Z,23.89
2022-09-06T03:23:14.307Z,23.89
2022-09-06T03:25:39.970Z,23.89
2022-09-06T03:28:05.515Z,23.89
2022-09-06T03:30:31.102Z,23.89
2022-09-06T03:33:01.982Z,23.88
2022-09-06T03:35:28.408Z,23.89
2022-09-06T03:37:53.959Z,23.89
2022-09-06T03:40:19.615Z,23.88
2022-09-06T03:42:45.711Z,23.88
2022-09-06T03:45:11.432Z,23.88
2022-09-06T03:47:36.974Z,23.88
2022-09-06T03:50:02.811Z,23.89
2022-09-06T03:52:28.359Z,23.90
2022-09-06T03:54:53.894Z,23.88
2022-09-06T03:57:19.444Z,23.89
2022-09-06T03:59:44.994Z,23.88
2022-09-06T04:02:10.575Z,23.88
2022-09-06T04:04:36.136Z,23.88
2022-09-06T04:07:01.691Z,23.88
2022-09-06T04:09:27.228Z,23.87
2022-09-06T04:11:52.773Z,23.87
2022-09-06T04:14:18.320Z,23.88
2022-09-06T04:16:43.993Z,23.87
2022-09-06T04:19:09.576Z,23.87
2022-09-06T04:21:35.116Z,23.88
2022-09-06T04:24:00.741Z,23.88
2022-09-06T04:26:26.275Z,23.88
2022-09-06T04:28:51.814Z,23.87
2022-09-06T04:31:17.351Z,23.87
2022-09-06T04:33:42.901Z,23.89
2022-09-06T04:36:08.973Z,23.88
2022-09-06T04:38:35.533Z,23.87
2022-09-06T04:41:01.071Z,23.87
2022-09-06T04:43:26.615Z,23.88
2022-09-06T04:45:52.177Z,23.87
2022-09-06T04:48:17.772Z,23.87
2022-09-06T04:50:43.301Z,23.87
2022-09-06T04:53:10.092Z,23.87
2022-09-06T04:55:36.120Z,23.87
2022-09-06T04:58:02.636Z,23.88
2022-09-06T05:00:28.404Z,23.87
2022-09-06T05:02:53.950Z,23.87
2022-09-06T05:05:19.516Z,23.74
2022-09-06T05:07:45.063Z,23.81
2022-09-06T05:10:10.608Z,23.85
2022-09-06T05:12:37.378Z,23.87
2022-09-06T05:15:04.459Z,23.87
2022-09-06T05:17:30.008Z,23.89
2022-09-06T05:19:55.545Z,23.89
2022-09-06T05:22:21.081Z,23.90
2022-09-06T05:24:46.627Z,23.91
2022-09-06T05:27:13.369Z,23.80
2022-09-06T05:29:38.925Z,23.83
2022-09-06T05:32:04.493Z,23.88
2022-09-06T05:34:30.089Z,23.86
2022-09-06T05:36:55.629Z,23.91
2022-09-06T05:39:21.173Z,23.92
2022-09-06T05:41:46.876Z,23.93
2022-09-06T05:44:13.286Z,23.94
2022-09-06T05:46:45.818Z,23.94
2022-09-06T05:49:11.968Z,23.96
2022-09-06T05:51:37.674Z,23.96
2022-09-06T05:54:03.211Z,23.96
2022-09-06T05:56:28.934Z,23.96
2022-09-06T05:58:54.485Z,23.96
2022-09-06T06:01:20.967Z,23.97
2022-09-06T06:03:50.201Z,23.98
2022-09-06T06:06:15.745Z,23.98
2022-09-06T06:08:41.295Z,23.98
2022-09-06T06:11:06.835Z,23.98
2022-09-06T06:13:38.666Z,23.98
2022-09-06T06:16:05.312Z,23.68
2022-09-06T06:18:30.894Z,23.69
2022-09-06T06:21:16.311Z,23.54
2022-09-06T06:23:42.554Z,23.47
2022-09-06T06:26:08.383Z,23.70
2022-09-06T06:28:35.121Z,23.84
2022-09-06T06:31:00.932Z,23.92
2022-09-06T06:33:27.047Z,23.95
2022-09-06T06:36:00.797Z,23.97
2022-09-06T06:38:34.019Z,23.98
2022-09-06T06:41:04.398Z,24.01
2022-09-06T06:43:35.568Z,24.01
2022-09-06T06:46:02.502Z,24.02
2022-09-06T06:48:28.281Z,24.02
2022-09-06T06:50:53.938Z,24.02
2022-09-06T06:53:19.492Z,24.02
2022-09-06T06:55:46.281Z,24.03
2022-09-06T06:58:11.827Z,23.92
2022-09-06T07:00:37.412Z,24.04
2022-09-06T07:03:03.911Z,24.06
2022-09-06T07:08:14.970Z,24.06
2022-09-06T07:10:41.115Z,24.07
2022-09-06T07:13:06.666Z,24.07
2022-09-06T07:15:32.210Z,24.07
2022-09-06T07:17:57.760Z,24.07
2022-09-06T07:20:25.391Z,24.08
2022-09-06T07:25:45.030Z,24.08
2022-09-06T07:28:10.947Z,24.09
2022-09-06T07:30:36.543Z,24.09
2022-09-06T07:33:04.468Z,24.10
2022-09-06T07:35:30.207Z,24.08
2022-09-06T07:37:56.279Z,24.08
2022-09-06T07:40:22.427Z,24.09
2022-09-06T07:42:47.977Z,24.10
2022-09-06T07:45:13.522Z,24.09
2022-09-06T07:53:14.103Z,24.11
2022-09-06T07:55:43.182Z,24.11
2022-09-06T07:58:08.745Z,24.11
2022-09-06T08:00:34.417Z,24.12
2022-09-06T08:03:00.037Z,24.12
2022-09-06T08:10:56.949Z,24.14
2022-09-06T08:13:22.495Z,24.14
2022-09-06T08:15:48.049Z,24.13
2022-09-06T08:18:13.603Z,24.13
2022-09-06T08:20:39.148Z,24.13
2022-09-06T08:23:08.726Z,24.13
2022-09-06T08:25:34.264Z,24.13
2022-09-06T08:27:59.807Z,24.15
2022-09-06T08:30:26.802Z,24.15
2022-09-06T08:32:52.350Z,24.14
2022-09-06T08:35:17.903Z,24.15
2022-09-06T08:37:43.448Z,24.15
2022-09-06T08:40:09.482Z,24.15
2022-09-06T08:42:37.274Z,24.16
2022-09-06T08:45:08.149Z,24.14
2022-09-06T08:47:33.711Z,24.13
2022-09-06T08:50:00.437Z,24.13
2022-09-06T08:53:06.261Z,24.15
2022-09-06T08:55:40.827Z,24.12
2022-09-06T08:58:10.342Z,24.13
2022-09-06T09:00:36.127Z,24.13
2022-09-06T09:03:04.682Z,24.13
2022-09-06T09:05:30.941Z,24.13
2022-09-06T09:08:13.448Z,24.12
2022-09-06T09:10:40.959Z,24.13
2022-09-06T09:13:07.018Z,24.12
2022-09-06T09:15:35.064Z,24.13
2022-09-06T09:18:02.654Z,24.13
2022-09-06T09:20:28.187Z,24.13
2022-09-06T09:22:53.734Z,24.11
2022-09-06T09:25:21.056Z,24.12
2022-09-06T09:27:46.612Z,24.12
2022-09-06T09:32:57.767Z,24.12
2022-09-06T09:35:30.057Z,24.13
2022-09-06T09:38:09.461Z,24.12
2022-09-06T09:40:40.779Z,24.13
2022-09-06T09:43:10.457Z,24.13
2022-09-06T09:45:35.990Z,24.15
2022-09-06T09:48:17.959Z,24.15
2022-09-06T09:50:43.541Z,24.13
2022-09-06T09:53:09.623Z,24.13
2022-09-06T09:55:35.135Z,24.13
2022-09-06T09:58:00.679Z,24.15
2022-09-06T10:00:42.438Z,24.13
2022-09-06T10:03:12.027Z,24.13
2022-09-06T10:05:37.598Z,24.12
2022-09-06T10:08:03.160Z,24.12
2022-09-06T10:10:45.968Z,24.11
2022-09-06T10:13:21.122Z,24.11
2022-09-06T10:15:47.037Z,24.11
2022-09-06T10:21:18.084Z,24.13
2022-09-06T10:26:50.927Z,24.11
2022-09-06T10:29:36.339Z,24.13
2022-09-06T10:32:21.766Z,24.16
2022-09-06T10:35:05.449Z,24.16
2022-09-06T10:37:50.894Z,24.14
2022-09-06T10:40:20.751Z,24.15
2022-09-06T10:42:47.492Z,24.19
2022-09-06T10:45:19.934Z,24.19
2022-09-06T10:48:03.860Z,24.17
2022-09-06T10:50:37.995Z,24.16
2022-09-06T10:53:12.958Z,24.17
2022-09-06T10:55:39.331Z,24.22
2022-09-06T10:58:20.730Z,24.22
2022-09-06T11:00:46.884Z,24.22
2022-09-06T11:06:06.612Z,24.20
2022-09-06T11:08:53.434Z,24.19
2022-09-06T11:11:38.742Z,24.18
2022-09-06T11:14:05.837Z,24.20
2022-09-06T11:16:32.461Z,24.19
2022-09-06T11:19:02.346Z,24.18
2022-09-06T11:21:33.283Z,24.18
2022-09-06T11:24:02.449Z,24.19
2022-09-06T11:26:47.874Z,24.20
2022-09-06T11:29:19.287Z,24.21
2022-09-06T11:34:40.290Z,24.21
2022-09-06T11:37:06.385Z,24.23
2022-09-06T11:42:40.068Z,24.23
2022-09-06T11:47:44.588Z,24.23
2022-09-06T11:50:27.095Z,24.25
2022-09-06T11:53:11.955Z,24.25
2022-09-06T11:55:39.471Z,24.24
2022-09-06T11:58:08.467Z,24.25
2022-09-06T12:00:34.017Z,24.26
2022-09-06T12:06:04.958Z,24.24
2022-09-06T12:08:31.255Z,24.25
2022-09-06T12:10:59.689Z,24.24
2022-09-06T12:16:10.307Z,24.24
2022-09-06T12:18:52.287Z,24.24
2022-09-06T12:21:37.754Z,24.24
2022-09-06T12:24:03.904Z,24.24
2022-09-06T12:26:55.332Z,24.24
2022-09-06T12:29:22.836Z,24.25
2022-09-06T12:31:52.099Z,24.24
2022-09-06T12:34:20.599Z,24.24
2022-09-06T12:36:47.457Z,24.24
2022-09-06T12:39:12.991Z,24.24
2022-09-06T12:41:43.265Z,24.23
2022-09-06T12:44:09.571Z,24.25
2022-09-06T12:46:35.152Z,24.24
2022-09-06T12:49:06.164Z,24.23
2022-09-06T12:51:31.803Z,24.22
2022-09-06T12:53:59.454Z,24.23
2022-09-06T12:56:26.024Z,24.23
2022-09-06T12:58:51.714Z,24.24
2022-09-06T13:01:25.807Z,24.24
2022-09-06T13:03:55.555Z,24.24
2022-09-06T13:06:26.579Z,24.23
2022-09-06T13:08:52.914Z,24.23
2022-09-06T13:11:28.478Z,24.23
2022-09-06T13:13:54.090Z,24.22
2022-09-06T13:16:20.613Z,24.22
2022-09-06T13:18:46.204Z,24.22
2022-09-06T13:21:13.872Z,24.22
2022-09-06T13:23:41.696Z,24.23
2022-09-06T13:26:07.244Z,24.22
2022-09-06T13:28:33.197Z,24.23
2022-09-06T13:31:03.467Z,24.22
2022-09-06T13:33:29.055Z,24.22
2022-09-06T13:36:14.483Z,24.23
2022-09-06T13:38:40.665Z,24.20
2022-09-06T13:41:15.757Z,24.20
2022-09-06T13:43:42.698Z,24.19
2022-09-06T13:46:09.511Z,24.21
2022-09-06T13:48:35.269Z,24.19
2022-09-06T13:51:02.634Z,24.20
2022-09-06T13:53:28.170Z,24.19
2022-09-06T13:55:53.727Z,24.19
2022-09-06T13:58:19.270Z,24.19
2022-09-06T14:00:46.065Z,24.18
2022-09-06T14:03:12.993Z,24.18
2022-09-06T14:05:38.878Z,24.18
2022-09-06T14:08:04.421Z,24.18
2022-09-06T14:10:29.981Z,24.17
2022-09-06T14:12:55.516Z,24.17
2022-09-06T14:15:21.064Z,24.17
2022-09-06T14:17:46.620Z,24.19
2022-09-06T14:20:12.166Z,24.17
2022-09-06T14:22:37.701Z,24.18
2022-09-06T14:25:03.533Z,24.17
2022-09-06T14:27:29.211Z,24.17
2022-09-06T14:29:54.761Z,24.20
2022-09-06T14:32:22.562Z,24.19
2022-09-06T14:34:48.455Z,24.19
2022-09-06T14:37:13.996Z,24.18
2022-09-06T14:39:39.581Z,24.18
2022-09-06T14:42:05.163Z,24.19
2022-09-06T14:44:30.715Z,24.18
2022-09-06T14:46:56.281Z,24.17
2022-09-06T14:49:21.863Z,24.17
2022-09-06T14:51:47.409Z,24.18
2022-09-06T14:54:13.223Z,24.18
2022-09-06T14:56:39.653Z,24.20
2022-09-06T14:59:05.402Z,24.18
2022-09-06T15:01:37.334Z,24.24
2022-09-06T15:04:04.947Z,24.23
2022-09-06T15:06:32.268Z,24.21
2022-09-06T15:08:59.485Z,24.22
2022-09-06T15:11:29.311Z,24.22
2022-09-06T15:13:55.091Z,24.21
2022-09-06T15:16:20.632Z,24.20
2022-09-06T15:18:46.177Z,24.21
2022-09-06T15:21:12.436Z,24.21
2022-09-06T15:23:38.705Z,24.22
2022-09-06T15:26:05.539Z,24.21
2022-09-06T15:28:33.654Z,24.22
2022-09-06T15:30:59.236Z,24.22
2022-09-06T15:33:28.060Z,24.22
2022-09-06T15:35:54.762Z,24.22
2022-09-06T15:38:20.311Z,24.24
2022-09-06T15:40:45.850Z,24.23
2022-09-06T15:43:11.403Z,24.23
2022-09-06T15:45:46.312Z,24.24
2022-09-06T15:48:11.997Z,24.23
2022-09-06T15:50:50.843Z,24.24
2022-09-06T15:53:17.456Z,24.25
2022-09-06T15:55:58.147Z,24.25
2022-09-06T15:58:24.353Z,24.25
2022-09-06T16:01:09.885Z,24.25
2022-09-06T16:03:36.585Z,24.25
2022-09-06T16:08:51.705Z,24.26
2022-09-06T16:11:17.664Z,24.25
2022-09-06T16:13:43.325Z,24.25
2022-09-06T16:16:09.656Z,24.25
2022-09-06T16:18:35.825Z,24.25
2022-09-06T16:21:06.806Z,24.25
2022-09-06T16:23:32.341Z,24.25
2022-09-06T16:25:57.892Z,24.25
2022-09-06T16:28:23.644Z,24.25
2022-09-06T16:30:49.272Z,24.25
2022-09-06T16:33:14.829Z,24.25
2022-09-06T16:35:40.683Z,24.25
2022-09-06T16:38:09.085Z,24.25
2022-09-06T16:40:35.119Z,24.24
2022-09-06T16:43:00.922Z,24.24
2022-09-06T16:45:26.679Z,24.24
2022-09-06T16:47:52.219Z,24.24
2022-09-06T16:50:17.754Z,24.25
2022-09-06T16:52:43.303Z,24.24
2022-09-06T16:55:08.848Z,24.23
2022-09-06T16:57:34.397Z,24.24
2022-09-06T16:59:59.934Z,24.23
2022-09-06T17:02:25.548Z,24.23
2022-09-06T17:04:52.986Z,24.22
2022-09-06T17:07:18.616Z,24.23
2022-09-06T17:09:44.153Z,24.23
2022-09-06T17:12:09.702Z,24.23
2022-09-06T17:14:36.129Z,24.23
2022-09-06T17:17:04.852Z,24.23
2022-09-06T17:19:33.153Z,24.22
2022-09-06T17:21:58.697Z,24.22
2022-09-06T17:24:25.455Z,24.23
2022-09-06T17:26:51.003Z,24.22
2022-09-06T17:29:16.603Z,24.22
2022-09-06T17:31:42.415Z,24.21
2022-09-06T17:34:07.948Z,24.22
2022-09-06T17:36:33.608Z,24.22
2022-09-06T17:39:00.002Z,24.21
2022-09-06T17:41:27.077Z,24.21
2022-09-06T17:43:53.720Z,24.22
2022-09-06T17:46:20.247Z,24.21
2022-09-06T17:48:45.834Z,24.21
2022-09-06T17:51:11.382Z,24.21
2022-09-06T17:53:37.147Z,24.21
2022-09-06T17:56:04.156Z,24.20
2022-09-06T17:58:29.808Z,24.21
2022-09-06T18:00:55.874Z,24.21
2022-09-06T18:03:21.459Z,24.19
2022-09-06T18:05:47.011Z,24.21
2022-09-06T18:08:12.556Z,24.20
2022-09-06T18:10:38.099Z,24.19
2022-09-06T18:13:04.179Z,24.19
2022-09-06T18:15:29.847Z,24.20
2022-09-06T18:17:55.394Z,24.19
2022-09-06T18:20:22.128Z,24.19
2022-09-06T18:22:47.669Z,24.19
2022-09-06T18:25:13.218Z,24.18
2022-09-06T18:27:38.758Z,24.20
2022-09-06T18:30:04.400Z,24.19
2022-09-06T18:32:30.160Z,24.19
2022-09-06T18:34:55.694Z,24.19
2022-09-06T18:37:21.258Z,24.18
2022-09-06T18:39:46.854Z,24.19
2022-09-06T18:42:12.474Z,24.18
2022-09-06T18:44:38.142Z,24.18
2022-09-06T18:47:05.144Z,24.18
2022-09-06T18:49:31.587Z,24.17
2022-09-06T18:51:57.189Z,24.18
2022-09-06T18:54:22.729Z,24.17
2022-09-06T18:56:49.167Z,24.18
2022-09-06T18:59:14.839Z,24.17
2022-09-06T19:01:41.824Z,24.17
2022-09-06T19:04:08.693Z,24.18
2022-09-06T19:06:34.664Z,24.17
2022-09-06T19:09:00.648Z,24.17
2022-09-06T19:11:26.192Z,24.18
2022-09-06T19:13:52.348Z,24.17
2022-09-06T19:16:18.048Z,24.17
2022-09-06T19:18:43.609Z,24.17
2022-09-06T19:21:10.230Z,24.17
2022-09-06T19:23:37.659Z,24.16
2022-09-06T19:26:04.176Z,24.16
2022-09-06T19:28:29.808Z,24.17
2022-09-06T19:30:55.600Z,24.17
2022-09-06T19:33:21.287Z,24.17
2022-09-06T19:36:09.951Z,24.17
2022-09-06T19:38:52.739Z,24.17
2022-09-06T19:41:19.910Z,24.16
2022-09-06T19:43:48.291Z,24.17
2022-09-06T19:46:13.901Z,24.16
2022-09-06T19:48:43.206Z,24.16
2022-09-06T19:51:09.015Z,24.16
2022-09-06T19:53:35.079Z,24.16
2022-09-06T19:56:07.588Z,24.16
2022-09-06T19:58:33.127Z,24.16
2022-09-06T20:00:58.718Z,24.16
2022-09-06T20:03:24.271Z,24.16
2022-09-06T20:05:55.285Z,24.15
2022-09-06T20:08:20.819Z,24.15
2022-09-06T20:10:54.119Z,24.15
2022-09-06T20:13:19.660Z,24.16
2022-09-06T20:15:45.203Z,24.15
2022-09-06T20:18:10.745Z,24.15
2022-09-06T20:20:36.289Z,24.15
2022-09-06T20:23:02.581Z,24.15
2022-09-06T20:25:28.129Z,24.15
2022-09-06T20:27:53.718Z,24.16
2022-09-06T20:30:19.557Z,24.15
2022-09-06T20:32:45.101Z,24.15
2022-09-06T20:35:10.636Z,24.14
2022-09-06T20:37:37.922Z,24.14
2022-09-06T20:40:05.205Z,24.15
2022-09-06T20:42:30.780Z,24.16
2022-09-06T20:44:56.436Z,24.14
2022-09-06T20:47:21.978Z,24.15
2022-09-06T20:49:48.032Z,24.15
2022-09-06T20:52:13.577Z,24.15
2022-09-06T20:54:40.215Z,24.14
2022-09-06T20:57:05.919Z,24.15
2022-09-06T20:59:31.471Z,24.13
2022-09-06T21:01:57.700Z,24.14
2022-09-06T21:04:25.105Z,24.13
2022-09-06T21:06:50.652Z,24.13
2022-09-06T21:09:16.187Z,24.14
2022-09-06T21:11:42.403Z,24.13
2022-09-06T21:14:08.654Z,24.12
2022-09-06T21:16:34.382Z,24.13
2022-09-06T21:19:00.895Z,24.13
2022-09-06T21:21:27.091Z,24.12
2022-09-06T21:23:52.627Z,24.13
2022-09-06T21:26:18.174Z,24.13
2022-09-06T21:28:44.518Z,24.13
2022-09-06T21:31:12.302Z,24.13
2022-09-06T21:33:39.813Z,24.12
2022-09-06T21:36:06.305Z,24.13
2022-09-06T21:38:33.259Z,24.13
2022-09-06T21:40:58.805Z,24.12
2022-09-06T21:43:24.450Z,24.12
2022-09-06T21:45:49.993Z,24.13
2022-09-06T21:48:17.506Z,24.12
2022-09-06T21:50:44.886Z,24.13
2022-09-06T21:53:10.424Z,24.12
2022-09-06T21:55:35.972Z,24.12
2022-09-06T21:58:01.521Z,24.11
2022-09-06T22:00:27.065Z,24.11
2022-09-06T22:02:52.600Z,24.12
2022-09-06T22:05:18.144Z,24.12
2022-09-06T22:07:43.680Z,24.11
2022-09-06T22:10:09.228Z,24.11
2022-09-06T22:12:34.769Z,24.11
2022-09-06T22:15:00.311Z,24.11
2022-09-06T22:17:25.860Z,24.12
2022-09-06T22:19:51.400Z,24.12
2022-09-06T22:22:16.941Z,24.11
2022-09-06T22:24:42.495Z,24.10
2022-09-06T22:27:08.247Z,24.12
2022-09-06T22:29:33.782Z,24.11
2022-09-06T22:31:59.329Z,24.11
2022-09-06T22:34:24.870Z,24.10
2022-09-06T22:36:50.410Z,24.11
2022-09-06T22:39:15.942Z,24.11
2022-09-06T22:41:41.486Z,24.11
2022-09-06T22:44:07.020Z,24.11
2022-09-06T22:46:32.598Z,24.10
2022-09-06T22:48:58.309Z,24.10
2022-09-06T22:51:23.845Z,24.11
2022-09-06T22:53:49.391Z,24.11
2022-09-06T22:56:15.016Z,24.10
2022-09-06T22:58:40.559Z,24.11
2022-09-06T23:01:07.272Z,24.10
2022-09-06T23:03:32.922Z,24.10
2022-09-06T23:05:59.672Z,24.10
2022-09-06T23:08:25.232Z,24.11
2022-09-06T23:10:50.776Z,24.13
2022-09-06T23:13:16.443Z,24.13
2022-09-06T23:15:45.158Z,24.14
2022-09-06T23:18:10.720Z,24.13
2022-09-06T23:20:36.456Z,24.13
2022-09-06T23:23:02.209Z,24.13
2022-09-06T23:25:27.768Z,24.13
2022-09-06T23:27:53.345Z,24.11
2022-09-06T23:30:18.951Z,24.12
2022-09-06T23:32:44.488Z,24.12
2022-09-06T23:35:10.033Z,24.12
2022-09-06T23:37:35.885Z,24.11
2022-09-06T23:40:04.698Z,24.10
2022-09-06T23:42:32.545Z,24.11
2022-09-06T23:44:58.233Z,24.11
2022-09-06T23:47:24.033Z,24.10
2022-09-06T23:49:50.763Z,24.10
2022-09-06T23:52:16.597Z,24.10
2022-09-06T23:54:42.141Z,24.10
2022-09-06T23:57:07.687Z,24.09
2022-09-06T23:59:34.027Z,24.10
